UKV5063 ENBR-ENGM
Flight info
| Callsign | UKV5063 |
|---|---|
| Flight time | N/A |
| Altitude | 35000 |
| Route | GOKAB DCT ULVAN DCT ADOPI |
| Aircraft | E190/M-SDE3GILORVW/S |
Departure
| Time | 2026-04-29 18:16 |
|---|---|
| Airport | Bergen Airport, Flesland (ENBR) |
Arrival
| Time | N/A |
|---|---|
| Airport | Oslo-Gardermoen International Airport (ENGM) |
| Time | Latitude | Longitude | Altitude | Speed | Heading |
|---|---|---|---|---|---|
| 2026-04-29 18:01 | 60.28700 | 5.22923 | 172 ft | 0 kts | 80° |
| 2026-04-29 18:08 | 60.28698 | 5.22899 | 172 ft | 4 kts | 80° |
| 2026-04-29 18:09 | 60.28694 | 5.22845 | 172 ft | 4 kts | 80° |
| 2026-04-29 18:09 | 60.28693 | 5.22835 | 172 ft | 0 kts | 80° |
| 2026-04-29 18:11 | 60.28695 | 5.22841 | 172 ft | 1 kts | 69° |
| 2026-04-29 18:12 | 60.28695 | 5.22842 | 172 ft | 0 kts | 66° |
| 2026-04-29 18:13 | 60.28696 | 5.22844 | 172 ft | 1 kts | 58° |
| 2026-04-29 18:13 | 60.28722 | 5.22804 | 172 ft | 10 kts | 281° |
| 2026-04-29 18:13 | 60.28715 | 5.22632 | 167 ft | 14 kts | 253° |
| 2026-04-29 18:13 | 60.28680 | 5.22424 | 164 ft | 17 kts | 237° |
| 2026-04-29 18:14 | 60.28580 | 5.22389 | 163 ft | 17 kts | 173° |
| 2026-04-29 18:14 | 60.28461 | 5.22437 | 162 ft | 18 kts | 169° |
| 2026-04-29 18:14 | 60.28324 | 5.22484 | 157 ft | 22 kts | 171° |
| 2026-04-29 18:14 | 60.28183 | 5.22530 | 150 ft | 21 kts | 172° |
| 2026-04-29 18:15 | 60.28063 | 5.22499 | 151 ft | 16 kts | 232° |
| 2026-04-29 18:15 | 60.28060 | 5.22270 | 149 ft | 15 kts | 299° |
| 2026-04-29 18:15 | 60.28148 | 5.22217 | 149 ft | 16 kts | 350° |
| 2026-04-29 18:15 | 60.28503 | 5.22056 | 161 ft | 92 kts | 342° |
| 2026-04-29 18:16 | 60.29365 | 5.21810 | 209 ft | 155 kts | 349° |
| 2026-04-29 18:16 | 60.30451 | 5.21533 | 1237 ft | 152 kts | 355° |
| 2026-04-29 18:16 | 60.31557 | 5.21193 | 1809 ft | 177 kts | 338° |
| 2026-04-29 18:16 | 60.32801 | 5.20639 | 2423 ft | 195 kts | 8° |
| 2026-04-29 18:17 | 60.34099 | 5.21759 | 3135 ft | 214 kts | 36° |
| 2026-04-29 18:17 | 60.35154 | 5.23930 | 4131 ft | 220 kts | 53° |
| 2026-04-29 18:17 | 60.35825 | 5.26743 | 5153 ft | 228 kts | 73° |
| 2026-04-29 18:17 | 60.36127 | 5.29968 | 5993 ft | 240 kts | 81° |
| 2026-04-29 18:18 | 60.36343 | 5.33480 | 6612 ft | 264 kts | 82° |
| 2026-04-29 18:18 | 60.36541 | 5.37258 | 7470 ft | 274 kts | 82° |
| 2026-04-29 18:18 | 60.36745 | 5.41116 | 8467 ft | 278 kts | 81° |
| 2026-04-29 18:18 | 60.36973 | 5.45017 | 9440 ft | 281 kts | 80° |
| 2026-04-29 18:19 | 60.37216 | 5.48974 | 10411 ft | 286 kts | 79° |
| 2026-04-29 18:19 | 60.37477 | 5.52982 | 11333 ft | 289 kts | 79° |
| 2026-04-29 18:19 | 60.37716 | 5.57045 | 12337 ft | 292 kts | 80° |
| 2026-04-29 18:19 | 60.37949 | 5.61155 | 13349 ft | 296 kts | 79° |
| 2026-04-29 18:20 | 60.38181 | 5.65324 | 14404 ft | 300 kts | 79° |
| 2026-04-29 18:20 | 60.38409 | 5.69544 | 15374 ft | 305 kts | 79° |
| 2026-04-29 18:20 | 60.38645 | 5.73827 | 16327 ft | 308 kts | 79° |
| 2026-04-29 18:20 | 60.38883 | 5.78170 | 17250 ft | 312 kts | 80° |
| 2026-04-29 18:21 | 60.39107 | 5.82566 | 18159 ft | 317 kts | 80° |
| 2026-04-29 18:21 | 60.39331 | 5.87032 | 19025 ft | 322 kts | 80° |
| 2026-04-29 18:21 | 60.39544 | 5.91571 | 19845 ft | 326 kts | 81° |
| 2026-04-29 18:21 | 60.39745 | 5.96171 | 20640 ft | 330 kts | 82° |
| 2026-04-29 18:22 | 60.39931 | 6.00828 | 21376 ft | 335 kts | 82° |
| 2026-04-29 18:22 | 60.40107 | 6.05545 | 22109 ft | 339 kts | 82° |
| 2026-04-29 18:22 | 60.40269 | 6.10266 | 22815 ft | 343 kts | 83° |
| 2026-04-29 18:22 | 60.40420 | 6.15102 | 23535 ft | 347 kts | 83° |
| 2026-04-29 18:23 | 60.40556 | 6.19996 | 24198 ft | 351 kts | 84° |
| 2026-04-29 18:23 | 60.40681 | 6.24944 | 24804 ft | 354 kts | 84° |
| 2026-04-29 18:23 | 60.40793 | 6.29955 | 25420 ft | 358 kts | 85° |
| 2026-04-29 18:23 | 60.40851 | 6.35024 | 26005 ft | 363 kts | 86° |
| 2026-04-29 18:24 | 60.40888 | 6.40149 | 26577 ft | 366 kts | 86° |
| 2026-04-29 18:24 | 60.40928 | 6.45335 | 27146 ft | 370 kts | 86° |
| 2026-04-29 18:24 | 60.40972 | 6.50564 | 27690 ft | 374 kts | 86° |
| 2026-04-29 18:24 | 60.41016 | 6.55848 | 28241 ft | 377 kts | 86° |
| 2026-04-29 18:25 | 60.41059 | 6.61184 | 28772 ft | 381 kts | 86° |
| 2026-04-29 18:25 | 60.41102 | 6.66572 | 29315 ft | 384 kts | 86° |
| 2026-04-29 18:25 | 60.41143 | 6.71975 | 29985 ft | 383 kts | 86° |
| 2026-04-29 18:25 | 60.41181 | 6.77356 | 30650 ft | 382 kts | 86° |
| 2026-04-29 18:26 | 60.41217 | 6.82721 | 31196 ft | 381 kts | 86° |
| 2026-04-29 18:26 | 60.41253 | 6.88077 | 31735 ft | 380 kts | 86° |
| 2026-04-29 18:26 | 60.41286 | 6.93422 | 32243 ft | 379 kts | 86° |
| 2026-04-29 18:26 | 60.41316 | 6.98752 | 32715 ft | 378 kts | 86° |
| 2026-04-29 18:27 | 60.41345 | 7.04075 | 33077 ft | 381 kts | 86° |
| 2026-04-29 18:27 | 60.41374 | 7.09540 | 33065 ft | 394 kts | 86° |
| 2026-04-29 18:27 | 60.41402 | 7.15154 | 33082 ft | 405 kts | 86° |
| 2026-04-29 18:28 | 60.41450 | 7.26839 | 33208 ft | 425 kts | 86° |
| 2026-04-29 18:28 | 60.41488 | 7.39055 | 33269 ft | 443 kts | 86° |
| 2026-04-29 18:28 | 60.41501 | 7.45336 | 33463 ft | 448 kts | 86° |
| 2026-04-29 18:29 | 60.41493 | 7.51631 | 33895 ft | 446 kts | 87° |
| 2026-04-29 18:29 | 60.41481 | 7.55780 | 34183 ft | 445 kts | 86° |
| 2026-04-29 18:29 | 60.41482 | 7.64115 | 34780 ft | 440 kts | 86° |
| 2026-04-29 18:29 | 60.41483 | 7.70310 | 34978 ft | 443 kts | 86° |
| 2026-04-29 18:30 | 60.41482 | 7.76565 | 34481 ft | 447 kts | 86° |
| 2026-04-29 18:30 | 60.41476 | 7.82826 | 33936 ft | 443 kts | 86° |
| 2026-04-29 18:30 | 60.41469 | 7.89059 | 33378 ft | 441 kts | 86° |
| 2026-04-29 18:30 | 60.41458 | 7.95251 | 32845 ft | 441 kts | 86° |
| 2026-04-29 18:31 | 60.41447 | 8.01467 | 32344 ft | 442 kts | 86° |
| 2026-04-29 18:31 | 60.41432 | 8.07689 | 31825 ft | 444 kts | 87° |
| 2026-04-29 18:31 | 60.41415 | 8.13937 | 31330 ft | 443 kts | 86° |
| 2026-04-29 18:31 | 60.41394 | 8.20173 | 30849 ft | 443 kts | 86° |
| 2026-04-29 18:32 | 60.41371 | 8.26415 | 30313 ft | 445 kts | 86° |
| 2026-04-29 18:32 | 60.41328 | 8.36934 | 28358 ft | 453 kts | 86° |
| 2026-04-29 18:32 | 60.41297 | 8.43302 | 27071 ft | 454 kts | 86° |
| 2026-04-29 18:33 | 60.41252 | 8.51776 | 25373 ft | 456 kts | 86° |
| 2026-04-29 18:33 | 60.41214 | 8.58198 | 24047 ft | 457 kts | 86° |
| 2026-04-29 18:33 | 60.41186 | 8.62548 | 22883 ft | 461 kts | 86° |
| 2026-04-29 18:33 | 60.41128 | 8.71019 | 21573 ft | 446 kts | 86° |
| 2026-04-29 18:34 | 60.41084 | 8.77237 | 20570 ft | 437 kts | 86° |
| 2026-04-29 18:34 | 60.41070 | 8.79309 | 20256 ft | 435 kts | 86° |
| 2026-04-29 18:34 | 60.41006 | 8.87408 | 18859 ft | 427 kts | 86° |
| 2026-04-29 18:34 | 60.40956 | 8.93386 | 17725 ft | 422 kts | 86° |
| 2026-04-29 18:35 | 60.40904 | 8.99249 | 16745 ft | 413 kts | 86° |
| 2026-04-29 18:35 | 60.40845 | 9.04918 | 15668 ft | 398 kts | 87° |
| 2026-04-29 18:35 | 60.40806 | 9.10474 | 14964 ft | 388 kts | 86° |